Yabucoa, Puerto Rico
Current Conditions -  °F | °C
As of 5:53 PM on Friday 28 Nov 2014 (Local Time) from TJNR Reporting Station
Clear Clear  
Wind Chill: 78°   Ceiling: Unl
Heat Index: 80°   Visibility: 10mi
Dew Point: 69°   Wind: 3mph
Humidity: 74%   Direction: 80°E
Pressure: 29.95"   Gusts: NA
Location:  18.05°N, 65.88°W
Report Text: TJNR 282153Z AUTO 08003KT 10SM CLR 26/21 A2995 RMK AO2 SLP142 T02560206 $
Loading
Personal Weather Stations






























Interactive Weather Map New forecast layout! Learn more

10-Day Weather Forecast

Advertisements
Track Severe Weather on mobile